Time;durP1;ratioP1;P1;durP2;ratioP2;P2;SDS_P1;SDS_P2;PMS_P1;PMS_P2;Temp;Humidity;BMP_temperature;BMP_pressure;BME280_temperature;BME280_humidity;BME280_pressure;Samples;Min_cycle;Max_cycle;Signal;HPM_P1;HPM_P2
2021/01/08 00:01:03;;;;;;;13.57;8.63;;;-1.00;99.90;-2.40;96307.00;;;;5112865;28;20452;-76
2021/01/08 00:03:30;;;;;;;12.20;9.87;;;-1.00;99.90;-2.40;96306.00;;;;5094303;28;20571;-75
2021/01/08 00:05:58;;;;;;;16.20;10.23;;;-1.00;99.90;-2.30;96303.00;;;;5092642;28;20449;-75
2021/01/08 00:08:25;;;;;;;12.00;9.03;;;-1.00;99.90;-2.40;96303.00;;;;5092054;28;20453;-75
2021/01/08 00:10:53;;;;;;;13.73;8.80;;;-1.00;99.90;-2.40;96304.00;;;;5092360;28;20929;-75
2021/01/08 00:13:22;;;;;;;12.57;9.10;;;-1.00;99.90;-2.40;96304.00;;;;5092882;28;20518;-75
2021/01/08 00:15:49;;;;;;;11.77;8.47;;;-1.00;99.90;-2.30;96303.00;;;;5112687;28;20536;-75
2021/01/08 00:18:17;;;;;;;21.63;9.77;;;-1.00;99.90;-2.30;96308.00;;;;5111670;28;20452;-75
2021/01/08 00:20:44;;;;;;;11.60;8.67;;;-1.00;99.90;-2.30;96313.00;;;;5113952;28;20440;-77
2021/01/08 00:23:12;;;;;;;11.33;9.30;;;-1.00;99.90;-2.50;96326.00;;;;5112597;28;21021;-77
2021/01/08 00:25:40;;;;;;;13.17;9.13;;;-1.00;99.90;-2.50;96317.00;;;;5112933;28;20455;-76
2021/01/08 00:28:08;;;;;;;12.77;8.47;;;-1.00;99.90;-2.50;96327.00;;;;5111822;28;20440;-76
2021/01/08 00:30:37;;;;;;;16.00;8.77;;;-1.10;99.90;-2.60;96315.00;;;;5112463;28;20445;-76
2021/01/08 00:33:04;;;;;;;11.40;8.73;;;-1.10;99.90;-2.60;96313.00;;;;5112275;28;20975;-77
2021/01/08 00:35:32;;;;;;;10.80;8.13;;;-1.10;99.90;-2.60;96309.00;;;;5112721;28;20440;-76
2021/01/08 00:37:59;;;;;;;12.53;8.30;;;-1.10;99.90;-2.60;96315.00;;;;5092701;28;20480;-76
2021/01/08 00:40:27;;;;;;;11.40;8.47;;;-1.20;99.90;-2.70;96309.00;;;;5091101;28;20816;-77
2021/01/08 00:42:54;;;;;;;13.80;8.47;;;-1.20;99.90;-2.80;96313.00;;;;5091380;28;20512;-76
2021/01/08 00:45:22;;;;;;;15.13;9.40;;;-1.20;99.90;-2.70;96314.00;;;;5091800;28;20490;-75
2021/01/08 00:47:50;;;;;;;10.27;8.00;;;-1.20;99.90;-2.70;96310.00;;;;5109097;28;20448;-77
2021/01/08 00:50:18;;;;;;;12.43;8.80;;;-1.30;99.90;-2.70;96309.00;;;;5112240;28;20469;-76
2021/01/08 00:52:46;;;;;;;11.23;7.70;;;-1.20;99.90;-2.60;96312.00;;;;5111353;28;20484;-76
2021/01/08 00:55:14;;;;;;;11.83;8.70;;;-1.30;99.90;-2.60;96312.00;;;;5111602;28;20451;-77
2021/01/08 00:57:41;;;;;;;12.87;8.03;;;-1.20;99.90;-2.70;96313.00;;;;5111177;28;20452;-77
2021/01/08 01:00:10;;;;;;;10.67;7.30;;;-1.20;99.90;-2.70;96310.00;;;;5111576;28;20460;-77
2021/01/08 01:02:38;;;;;;;8.77;7.40;;;-1.30;99.90;-2.60;96317.00;;;;5100272;28;20488;-77
2021/01/08 01:05:08;;;;;;;9.87;6.80;;;-1.20;99.90;-2.60;96317.00;;;;5091798;28;20449;-77
2021/01/08 01:07:36;;;;;;;11.37;8.97;;;-1.30;99.90;-2.60;96320.00;;;;5090755;28;20457;-77
2021/01/08 01:10:05;;;;;;;10.00;6.73;;;-1.30;99.90;-2.60;96313.00;;;;5091378;28;20449;-77
2021/01/08 01:12:33;;;;;;;8.93;6.50;;;-1.20;99.90;-2.60;96315.00;;;;5090922;28;20465;-77
2021/01/08 01:15:00;;;;;;;11.97;8.57;;;-1.20;99.90;-2.60;96315.00;;;;5110226;28;20452;-76
2021/01/08 01:17:28;;;;;;;11.23;7.70;;;-1.20;99.90;-2.70;96313.00;;;;5110845;28;20447;-77
2021/01/08 01:19:55;;;;;;;10.07;7.10;;;-1.20;99.90;-2.70;96313.00;;;;5111520;28;20544;-77
2021/01/08 01:22:24;;;;;;;11.90;7.97;;;-1.20;99.90;-2.70;96308.00;;;;5111266;28;20471;-77
2021/01/08 01:24:51;;;;;;;10.70;6.87;;;-1.30;99.90;-2.70;96299.00;;;;5111459;28;20459;-77
2021/01/08 01:27:19;;;;;;;11.93;7.77;;;-1.30;99.90;-2.80;96309.00;;;;5110674;28;20495;-77
2021/01/08 01:29:47;;;;;;;9.97;7.13;;;-1.30;99.90;-2.80;96305.00;;;;5111197;28;20444;-76
2021/01/08 01:32:15;;;;;;;11.33;7.47;;;-1.30;99.90;-2.80;96308.00;;;;5111178;28;20490;-76
2021/01/08 01:34:42;;;;;;;10.60;7.30;;;-1.40;99.90;-2.80;96308.00;;;;5111375;28;20527;-76
2021/01/08 01:37:10;;;;;;;11.33;7.67;;;-1.40;99.90;-2.80;96313.00;;;;5098158;28;20932;-77
2021/01/08 01:39:40;;;;;;;9.57;7.10;;;-1.40;99.90;-2.90;96313.00;;;;5090761;28;20460;-77
2021/01/08 01:42:08;;;;;;;10.13;7.07;;;-1.40;99.90;-3.00;96315.00;;;;5090682;28;20520;-77
2021/01/08 01:44:35;;;;;;;8.33;7.17;;;-1.50;99.90;-3.00;96311.00;;;;5090542;28;20864;-77
2021/01/08 01:47:03;;;;;;;9.23;7.63;;;-1.50;99.90;-3.00;96320.00;;;;5101148;28;20456;-75
2021/01/08 01:49:31;;;;;;;9.63;5.97;;;-1.50;99.90;-3.00;96317.00;;;;5111103;28;20448;-77
2021/01/08 01:52:01;;;;;;;12.17;7.80;;;-1.50;99.90;-3.00;96313.00;;;;5110360;28;20459;-77
2021/01/08 01:54:29;;;;;;;8.60;6.03;;;-1.50;99.90;-3.00;96315.00;;;;5111549;28;20459;-77
2021/01/08 01:56:58;;;;;;;9.37;7.17;;;-1.60;99.90;-3.00;96309.00;;;;5110204;28;20667;-77
2021/01/08 01:59:25;;;;;;;14.33;7.57;;;-1.60;99.90;-2.90;96304.00;;;;5111279;28;20456;-76
2021/01/08 02:01:56;;;;;;;9.73;6.87;;;-1.60;99.90;-2.90;96312.00;;;;5105954;28;20445;-77
2021/01/08 02:04:24;;;;;;;9.10;7.90;;;-1.50;99.90;-2.90;96305.00;;;;5090307;28;20520;-77
2021/01/08 02:06:52;;;;;;;10.47;6.30;;;-1.50;99.90;-3.00;96320.00;;;;5089979;28;20456;-76
2021/01/08 02:09:21;;;;;;;8.40;6.20;;;-1.50;99.90;-3.00;96303.00;;;;5091095;28;20790;-77
2021/01/08 02:11:54;;;;;;;8.73;7.43;;;-1.60;99.90;-3.00;96298.00;;;;5090361;28;20449;-77
2021/01/08 02:14:28;;;;;;;9.43;6.70;;;-1.60;99.90;-2.90;96304.00;;;;5098302;28;20464;-77
2021/01/08 02:16:57;;;;;;;9.70;7.00;;;-1.60;99.90;-2.90;96306.00;;;;5109518;28;20444;-77
2021/01/08 02:19:32;;;;;;;7.50;6.37;;;-1.50;99.90;-3.00;96320.00;;;;5110573;28;20436;-75
2021/01/08 02:22:09;;;;;;;7.17;5.27;;;-1.50;99.90;-3.20;96308.00;;;;5110486;28;20444;-74
2021/01/08 02:24:41;;;;;;;8.33;5.10;;;-1.50;99.90;-3.30;96308.00;;;;5111765;28;20831;-75
2021/01/08 02:27:10;;;;;;;6.43;5.00;;;-1.70;99.90;-3.20;96310.00;;;;5110454;28;20448;-77
2021/01/08 02:29:40;;;;;;;7.90;5.70;;;-1.70;99.90;-3.00;96323.00;;;;5110826;28;20538;-77
2021/01/08 02:32:08;;;;;;;8.13;6.37;;;-1.70;99.90;-3.00;96316.00;;;;5110218;28;20452;-76
2021/01/08 02:34:37;;;;;;;8.00;6.37;;;-1.70;99.90;-3.00;96318.00;;;;5110510;28;20524;-76
2021/01/08 02:37:05;;;;;;;6.63;5.73;;;-1.70;99.90;-2.90;96309.00;;;;5109962;28;20448;-76
2021/01/08 02:39:33;;;;;;;8.67;5.63;;;-1.60;99.90;-2.90;96313.00;;;;5109966;28;20456;-76
2021/01/08 02:42:01;;;;;;;6.80;5.73;;;-1.60;99.90;-2.90;96300.00;;;;5110204;28;20976;-75
2021/01/08 02:44:30;;;;;;;10.40;6.57;;;-1.60;99.90;-2.90;96313.00;;;;5110814;28;20487;-76
2021/01/08 02:46:57;;;;;;;7.73;5.93;;;-1.50;99.90;-3.00;96309.00;;;;5110265;28;20987;-76
2021/01/08 02:49:25;;;;;;;6.50;5.70;;;-1.50;99.90;-3.00;96308.00;;;;5110969;28;20501;-76
2021/01/08 02:51:52;;;;;;;6.83;5.50;;;-1.60;99.90;-3.10;96305.00;;;;5110418;28;20440;-75
2021/01/08 02:54:20;;;;;;;9.43;6.57;;;-1.60;99.90;-3.10;96299.00;;;;5109666;28;20452;-77
2021/01/08 02:56:53;;;;;;;7.57;5.73;;;-1.60;99.90;-3.00;96292.00;;;;5110165;28;20816;-75
2021/01/08 02:59:22;;;;;;;6.90;5.33;;;-1.60;99.90;-2.90;96306.00;;;;5111005;28;20963;-76
2021/01/08 03:01:51;;;;;;;8.40;5.73;;;-1.60;99.90;-2.90;96296.00;;;;5106515;28;20453;-76
2021/01/08 03:04:20;;;;;;;5.90;4.90;;;-1.60;99.90;-3.00;96300.00;;;;5093289;28;20486;-77
2021/01/08 03:06:48;;;;;;;5.50;4.73;;;-1.60;99.90;-3.00;96301.00;;;;5093466;28;20449;-76
2021/01/08 03:09:17;;;;;;;8.67;5.70;;;-1.60;99.90;-3.10;96299.00;;;;5093793;28;20448;-75
2021/01/08 03:11:51;;;;;;;7.17;4.93;;;-1.60;99.90;-3.00;96300.00;;;;5093286;28;20467;-76
2021/01/08 03:14:20;;;;;;;8.23;5.23;;;-1.60;99.90;-3.00;96307.00;;;;5102212;28;20447;-75
2021/01/08 03:16:48;;;;;;;6.83;5.07;;;-1.60;99.90;-3.00;96308.00;;;;5113823;28;20824;-76
2021/01/08 03:19:16;;;;;;;6.13;4.93;;;-1.60;99.90;-3.00;96300.00;;;;5113567;28;20475;-75
2021/01/08 03:21:44;;;;;;;7.60;4.93;;;-1.60;99.90;-3.00;96305.00;;;;5113818;28;20452;-75
2021/01/08 03:24:11;;;;;;;6.20;4.93;;;-1.60;99.90;-3.10;96300.00;;;;5113543;28;20484;-76
2021/01/08 03:26:39;;;;;;;7.20;5.80;;;-1.70;99.90;-3.10;96300.00;;;;5113653;28;20451;-75
2021/01/08 03:29:07;;;;;;;7.40;5.47;;;-1.70;99.90;-3.20;96315.00;;;;5112959;28;20483;-75
2021/01/08 03:31:34;;;;;;;6.03;5.27;;;-1.70;99.90;-3.10;96303.00;;;;5113933;28;20448;-76
2021/01/08 03:34:02;;;;;;;7.10;4.63;;;-1.70;99.90;-3.10;96305.00;;;;5113169;28;20469;-76
2021/01/08 03:36:30;;;;;;;5.43;4.27;;;-1.70;99.90;-3.00;96301.00;;;;5107690;28;20457;-77
2021/01/08 03:38:58;;;;;;;7.03;5.40;;;-1.70;99.90;-3.00;96298.00;;;;5092840;28;20506;-76
2021/01/08 03:41:25;;;;;;;6.93;4.67;;;-1.70;99.90;-3.10;96294.00;;;;5093138;28;20951;-76
2021/01/08 03:43:53;;;;;;;7.33;4.97;;;-1.70;99.90;-3.00;96291.00;;;;5093458;28;20899;-76
2021/01/08 03:46:20;;;;;;;5.43;4.30;;;-1.70;99.90;-3.00;96290.00;;;;5097521;28;20479;-77
2021/01/08 03:48:48;;;;;;;7.87;5.43;;;-1.60;99.90;-2.90;96288.00;;;;5113204;28;20555;-77
2021/01/08 03:51:15;;;;;;;5.67;5.07;;;-1.60;99.90;-2.90;96291.00;;;;5113640;28;21080;-77
2021/01/08 03:53:44;;;;;;;5.77;4.47;;;-1.60;99.90;-2.90;96280.00;;;;5113521;28;20471;-76
2021/01/08 03:56:11;;;;;;;6.00;3.90;;;-1.60;99.90;-3.00;96270.00;;;;5113212;28;21237;-76
2021/01/08 03:58:39;;;;;;;6.10;4.80;;;-1.60;99.90;-3.00;96272.00;;;;5112642;28;20460;-76
2021/01/08 04:01:06;;;;;;;7.40;5.97;;;-1.60;99.90;-2.90;96278.00;;;;5111573;28;20460;-76
2021/01/08 04:03:34;;;;;;;5.67;4.70;;;-1.60;99.90;-2.90;96283.00;;;;5106841;28;21015;-75
2021/01/08 04:06:01;;;;;;;7.10;5.00;;;-1.60;99.90;-2.90;96276.00;;;;5111106;28;20453;-74
2021/01/08 04:08:29;;;;;;;5.77;4.70;;;-1.60;99.90;-2.90;96281.00;;;;5111077;28;20456;-76
2021/01/08 04:10:57;;;;;;;6.60;5.23;;;-1.50;99.90;-2.90;96273.00;;;;5111998;28;20452;-75
2021/01/08 04:13:25;;;;;;;7.70;5.53;;;-1.50;99.90;-2.80;96274.00;;;;5105880;28;20838;-76
2021/01/08 04:15:52;;;;;;;8.30;6.77;;;-1.50;99.90;-2.70;96271.00;;;;5111355;28;20865;-75
2021/01/08 04:18:20;;;;;;;6.77;5.13;;;-1.50;99.90;-2.70;96280.00;;;;5109773;28;20436;-75
2021/01/08 04:20:48;;;;;;;6.87;5.13;;;-1.40;99.90;-2.60;96282.00;;;;5110978;28;20444;-75
2021/01/08 04:23:16;;;;;;;6.97;4.70;;;-1.40;99.90;-2.60;96285.00;;;;5110151;28;20495;-74
2021/01/08 04:25:44;;;;;;;7.60;5.63;;;-1.30;99.90;-2.60;96272.00;;;;5110498;28;20444;-76
2021/01/08 04:28:12;;;;;;;7.97;5.33;;;-1.30;99.90;-2.60;96275.00;;;;5109622;28;20459;-75
2021/01/08 04:30:39;;;;;;;7.50;5.70;;;-1.30;99.90;-2.50;96280.00;;;;5111367;28;20455;-76
2021/01/08 04:33:07;;;;;;;7.00;6.30;;;-1.20;99.90;-2.50;96281.00;;;;5110405;28;20468;-76
2021/01/08 04:35:34;;;;;;;7.87;5.73;;;-1.20;99.90;-2.50;96277.00;;;;5111019;28;20447;-74
2021/01/08 04:38:02;;;;;;;5.40;4.13;;;-1.20;99.90;-2.40;96273.00;;;;5090815;28;20446;-76
2021/01/08 04:40:30;;;;;;;8.50;5.00;;;-1.00;99.90;-2.40;96277.00;;;;5090347;28;20458;-75
2021/01/08 04:42:57;;;;;;;7.27;5.60;;;-1.10;99.90;-2.30;96272.00;;;;5089435;28;20527;-76
2021/01/08 04:45:26;;;;;;;7.03;5.40;;;-1.10;99.90;-2.40;96267.00;;;;5090304;28;20457;-75
2021/01/08 04:47:57;;;;;;;6.73;4.73;;;-1.10;99.90;-2.40;96276.00;;;;5107129;28;20448;-77
2021/01/08 04:50:26;;;;;;;7.87;5.90;;;-1.00;99.90;-2.40;96286.00;;;;5110164;28;20453;-75
2021/01/08 04:52:54;;;;;;;7.10;5.77;;;-1.00;99.90;-2.30;96278.00;;;;5109936;28;20468;-76
2021/01/08 04:55:25;;;;;;;8.00;6.47;;;-1.00;99.90;-2.40;96285.00;;;;5110262;28;20799;-75
2021/01/08 04:57:54;;;;;;;7.07;5.27;;;-1.00;99.90;-2.40;96281.00;;;;5110126;28;20444;-76
2021/01/08 05:00:22;;;;;;;7.93;5.63;;;-1.00;99.90;-2.40;96275.00;;;;5110273;28;20455;-76
2021/01/08 05:02:52;;;;;;;8.47;5.93;;;-1.00;99.90;-2.30;96296.00;;;;5099579;28;20480;-76
2021/01/08 05:05:21;;;;;;;8.30;6.20;;;-1.00;99.90;-2.30;96285.00;;;;5089819;28;20951;-74
2021/01/08 05:07:49;;;;;;;6.07;4.97;;;-1.00;99.90;-2.30;96285.00;;;;5088443;28;20449;-77
2021/01/08 05:10:17;;;;;;;9.13;6.40;;;-1.00;99.90;-2.30;96296.00;;;;5089806;28;20468;-74
2021/01/08 05:12:45;;;;;;;7.27;6.57;;;-1.00;99.90;-2.20;96283.00;;;;5089289;28;20464;-74
2021/01/08 05:15:13;;;;;;;6.80;6.10;;;-0.90;99.90;-2.20;96293.00;;;;5105686;28;20961;-74
2021/01/08 05:17:41;;;;;;;7.67;5.67;;;-0.90;99.90;-2.20;96293.00;;;;5108631;28;20448;-75
2021/01/08 05:20:11;;;;;;;8.07;5.57;;;-0.90;99.90;-2.30;96299.00;;;;5109919;28;20440;-75
2021/01/08 05:22:40;;;;;;;7.87;5.17;;;-0.90;99.90;-2.30;96297.00;;;;5109221;28;20845;-74
2021/01/08 05:25:09;;;;;;;11.23;7.50;;;-0.90;99.90;-2.50;96294.00;;;;5108800;28;20495;-75
2021/01/08 05:27:37;;;;;;;9.17;6.07;;;-1.00;99.90;-2.40;96299.00;;;;5109073;28;20475;-75
2021/01/08 05:30:17;;;;;;;6.90;5.97;;;-1.00;99.90;-2.20;96304.00;;;;5109395;28;20994;-75
2021/01/08 05:32:45;;;;;;;7.13;6.10;;;-1.00;99.90;-2.20;96315.00;;;;5109490;28;20475;-75
2021/01/08 05:35:16;;;;;;;9.93;7.10;;;-0.90;99.90;-2.20;96300.00;;;;5109550;28;20539;-75
2021/01/08 05:37:46;;;;;;;9.13;6.63;;;-0.90;99.90;-2.10;96307.00;;;;5108894;28;20791;-75
2021/01/08 05:40:14;;;;;;;9.37;6.57;;;-0.90;99.90;-2.10;96302.00;;;;5109969;28;21032;-74
2021/01/08 05:42:55;;;;;;;6.87;5.83;;;-0.80;99.90;-2.00;96311.00;;;;5109574;28;20494;-74
2021/01/08 05:45:23;;;;;;;8.00;5.93;;;-0.80;99.90;-2.00;96306.00;;;;5109645;28;20507;-74
2021/01/08 05:47:52;;;;;;;9.30;7.33;;;-0.80;99.90;-2.00;96309.00;;;;5109427;28;20455;-73
2021/01/08 05:50:23;;;;;;;6.27;5.50;;;-0.80;99.90;-2.00;96306.00;;;;5109764;28;20447;-74
2021/01/08 05:52:55;;;;;;;7.80;5.93;;;-0.70;99.90;-2.00;96311.00;;;;5109584;28;20464;-75
2021/01/08 05:55:22;;;;;;;12.23;6.60;;;-0.70;99.90;-2.00;96306.00;;;;5109442;28;20448;-74
2021/01/08 05:57:50;;;;;;;9.27;6.50;;;-1.90;99.90;-2.10;96306.00;;;;5109253;28;20447;-75
2021/01/08 06:00:19;;;;;;;9.07;5.63;;;-0.70;99.90;-2.10;96306.00;;;;5109646;28;20517;-75
2021/01/08 06:02:49;;;;;;;7.67;5.80;;;-0.70;99.90;-2.20;96304.00;;;;5109132;28;20818;-75
2021/01/08 06:05:20;;;;;;;10.23;5.50;;;-0.80;99.90;-2.30;96301.00;;;;5089274;28;20491;-74
2021/01/08 06:07:50;;;;;;;7.33;5.90;;;-0.80;99.90;-2.40;96302.00;;;;5087694;28;20464;-75
2021/01/08 06:10:25;;;;;;;7.53;5.47;;;-0.90;99.90;-2.40;96301.00;;;;5089139;28;20477;-75
2021/01/08 06:12:54;;;;;;;13.93;7.60;;;-0.90;99.90;-2.40;96305.00;;;;5088702;28;20476;-76
2021/01/08 06:15:22;;;;;;;8.97;6.30;;;-1.00;99.90;-2.30;96312.00;;;;5089070;28;20452;-75
2021/01/08 06:17:52;;;;;;;12.97;7.20;;;-1.00;99.90;-2.30;96307.00;;;;5088084;28;20792;-72
2021/01/08 06:20:21;;;;;;;13.00;8.60;;;-1.00;99.90;-2.20;96314.00;;;;5088822;28;20464;-74
2021/01/08 06:22:49;;;;;;;14.77;8.07;;;-0.90;99.90;-2.20;96312.00;;;;5088423;28;20473;-74
2021/01/08 06:25:19;;;;;;;11.60;7.43;;;-0.90;99.90;-2.20;96310.00;;;;5091024;28;20538;-75
2021/01/08 06:27:47;;;;;;;21.40;9.93;;;-0.70;99.90;-2.20;96318.00;;;;5088361;28;20457;-74
2021/01/08 06:30:26;;;;;;;13.37;9.37;;;-0.90;99.90;-2.30;96313.00;;;;5088539;28;20456;-75
2021/01/08 06:33:03;;;;;;;10.37;7.20;;;-0.90;99.90;-2.30;96321.00;;;;5088353;28;20477;-74
2021/01/08 06:35:33;;;;;;;11.10;6.97;;;-0.90;99.90;-2.20;96325.00;;;;5088905;28;20527;-76
2021/01/08 06:38:02;;;;;;;10.10;6.70;;;-0.90;99.90;-2.40;96319.00;;;;5091254;28;20811;-74
2021/01/08 06:40:42;;;;;;;7.23;5.73;;;-0.90;99.90;-2.40;96317.00;;;;5121450;27;20443;-74
2021/01/08 06:43:19;;;;;;;8.47;6.57;;;-1.00;99.90;-2.30;96321.00;;;;5130162;27;20957;-75
2021/01/08 06:45:56;;;;;;;7.97;6.60;;;-0.90;99.90;-2.30;96334.00;;;;5110658;28;20470;-74
2021/01/08 06:48:25;;;;;;;9.20;6.83;;;-1.00;99.90;-2.20;96338.00;;;;5109817;28;20458;-75
2021/01/08 06:50:58;;;;;;;9.60;6.43;;;-0.90;99.90;-2.20;96336.00;;;;5111279;28;20456;-75
2021/01/08 06:53:28;;;;;;;8.17;6.17;;;-0.90;99.90;-2.20;96339.00;;;;5108811;28;20464;-75
2021/01/08 06:55:56;;;;;;;8.80;5.90;;;-0.90;99.90;-2.30;96341.00;;;;5109763;28;20508;-75
2021/01/08 06:58:27;;;;;;;11.47;7.23;;;-0.90;99.90;-2.30;96347.00;;;;5104260;28;20498;-75
2021/01/08 07:00:58;;;;;;;12.97;8.37;;;-0.90;99.90;-2.30;96344.00;;;;5111199;28;20452;-75
2021/01/08 07:03:26;;;;;;;9.30;7.73;;;-0.90;99.90;-2.40;96345.00;;;;5110893;28;20475;-75
2021/01/08 07:05:56;;;;;;;11.40;8.30;;;-1.00;99.90;-2.40;96349.00;;;;5111380;28;20523;-74
2021/01/08 07:08:25;;;;;;;8.40;5.93;;;-1.00;99.90;-2.40;96347.00;;;;5106531;28;20448;-75
2021/01/08 07:10:55;;;;;;;7.67;6.40;;;-1.00;99.90;-2.40;96347.00;;;;5111203;28;20463;-76
2021/01/08 07:13:30;;;;;;;9.43;7.63;;;-0.90;99.90;-2.40;96347.00;;;;5106655;28;20526;-75
2021/01/08 07:15:58;;;;;;;8.07;5.87;;;-1.00;99.90;-2.40;96355.00;;;;5092142;28;20452;-76
2021/01/08 07:18:28;;;;;;;7.37;6.33;;;-1.00;99.90;-2.30;96356.00;;;;5092854;27;20476;-76
2021/01/08 07:20:58;;;;;;;8.87;5.67;;;-1.00;99.90;-2.30;96355.00;;;;5110289;28;20448;-75
2021/01/08 07:23:35;;;;;;;8.93;6.10;;;-1.00;99.90;-2.40;96362.00;;;;5111469;28;20463;-74
2021/01/08 07:26:04;;;;;;;8.30;5.73;;;-1.00;99.90;-2.50;96363.00;;;;5112135;28;20456;-75
2021/01/08 07:28:32;;;;;;;13.20;7.00;;;-1.00;99.90;-2.50;96367.00;;;;5100506;28;20463;-74
2021/01/08 07:31:10;;;;;;;9.73;7.53;;;-1.10;99.90;-2.50;96369.00;;;;5113364;27;20478;-74
2021/01/08 07:33:46;;;;;;;7.87;7.03;;;-1.10;99.90;-2.50;96367.00;;;;5093425;28;20513;-73
2021/01/08 07:36:24;;;;;;;6.90;6.03;;;-1.10;99.90;-2.40;96376.00;;;;5099716;28;20496;-75
2021/01/08 07:38:52;;;;;;;13.30;8.73;;;-1.10;99.90;-2.40;96375.00;;;;5109653;28;20467;-75
2021/01/08 07:41:38;;;;;;;10.60;8.40;;;-1.00;99.90;-2.30;96382.00;;;;5111500;28;20943;-74
2021/01/08 07:44:32;;;;;;;8.80;6.90;;;-1.10;99.90;-2.40;96379.00;;;;5094327;28;20524;-74
2021/01/08 07:47:21;;;;;;;10.77;7.93;;;-1.10;99.90;-2.30;96392.00;;;;5102177;28;20468;-74
2021/01/08 07:50:09;;;;;;;10.63;7.97;;;-1.00;99.90;-2.20;96389.00;;;;5096543;28;20468;-75
2021/01/08 07:52:39;;;;;;;8.70;6.80;;;-1.00;99.90;-2.20;96385.00;;;;5094685;28;20476;-76
2021/01/08 07:55:08;;;;;;;11.07;7.93;;;-0.90;99.90;-2.20;96391.00;;;;5090797;28;20457;-76
2021/01/08 07:58:17;;;;;;;12.27;8.23;;;-0.90;99.90;-2.20;96393.00;;;;5090337;28;20456;-76
2021/01/08 08:00:52;;;;;;;10.57;6.93;;;-0.90;99.90;-2.20;96398.00;;;;5107913;28;20954;-75
2021/01/08 08:03:21;;;;;;;8.07;6.70;;;-0.90;99.90;-2.20;96396.00;;;;5097171;28;20495;-74
2021/01/08 08:05:52;;;;;;;10.47;7.37;;;-0.90;99.90;-2.20;96409.00;;;;5102895;28;20574;-75
2021/01/08 08:08:21;;;;;;;7.43;5.67;;;-0.90;99.90;-2.20;96403.00;;;;5106849;28;20447;-75
2021/01/08 08:10:48;;;;;;;9.30;6.00;;;-0.80;99.90;-2.10;96405.00;;;;5104161;28;21034;-76
2021/01/08 08:13:16;;;;;;;10.83;7.07;;;-0.80;99.90;-2.10;96410.00;;;;5105902;28;20467;-74
2021/01/08 08:15:47;;;;;;;8.43;6.27;;;-0.80;99.90;-2.10;96410.00;;;;5108250;28;20440;-73
2021/01/08 08:18:16;;;;;;;6.93;6.13;;;-0.80;99.90;-2.00;96411.00;;;;5109169;28;20809;-73
2021/01/08 08:20:43;;;;;;;8.07;6.47;;;-0.70;99.90;-2.00;96412.00;;;;5110386;28;20455;-75
2021/01/08 08:23:20;;;;;;;10.10;7.67;;;-0.70;99.90;-2.00;96408.00;;;;5104281;28;20475;-75
2021/01/08 08:25:48;;;;;;;7.83;6.10;;;-0.70;99.90;-2.10;96418.00;;;;5107785;28;20484;-75
2021/01/08 08:28:15;;;;;;;10.13;6.43;;;-0.70;99.90;-2.00;96413.00;;;;5109694;28;20448;-74
2021/01/08 08:30:43;;;;;;;9.23;6.97;;;-0.70;99.90;-2.00;96415.00;;;;5102881;28;20831;-75
2021/01/08 08:33:11;;;;;;;7.13;5.80;;;-0.70;99.90;-1.90;96414.00;;;;5109659;28;20468;-75
2021/01/08 08:35:42;;;;;;;9.63;6.77;;;-0.60;99.90;-1.90;96416.00;;;;5109360;28;20456;-72
2021/01/08 08:38:09;;;;;;;8.03;6.23;;;-0.60;99.90;-1.80;96413.00;;;;5104646;27;20451;-75
2021/01/08 08:40:38;;;;;;;8.90;6.70;;;-0.60;99.90;-1.90;96423.00;;;;5108773;28;20499;-76
2021/01/08 08:43:06;;;;;;;9.70;6.37;;;-0.60;99.90;-1.90;96426.00;;;;5099969;28;20504;-76
2021/01/08 08:45:35;;;;;;;9.43;6.77;;;-0.50;99.90;-1.90;96424.00;;;;5106213;28;20569;-75
2021/01/08 08:48:06;;;;;;;6.70;5.97;;;-0.50;99.90;-1.80;96427.00;;;;5109341;28;20440;-75
2021/01/08 08:50:35;;;;;;;9.03;6.17;;;-0.50;99.90;-1.80;96424.00;;;;5110258;28;20487;-75
2021/01/08 08:53:11;;;;;;;10.13;7.73;;;-0.50;99.90;-1.60;96426.00;;;;5110369;28;20555;-73
2021/01/08 08:55:40;;;;;;;10.33;7.40;;;-0.50;99.90;-1.60;96419.00;;;;5110199;28;20905;-74
2021/01/08 08:58:10;;;;;;;10.90;7.37;;;-0.40;99.90;-1.40;96419.00;;;;5089746;28;20826;-75
2021/01/08 09:00:41;;;;;;;10.30;7.33;;;-0.30;99.90;-1.20;96421.00;;;;5088613;28;20685;-75
2021/01/08 09:03:20;;;;;;;9.53;6.47;;;-0.20;99.90;-1.10;96429.00;;;;5098045;28;20468;-75
2021/01/08 09:05:49;;;;;;;7.57;5.53;;;-0.10;99.90;-0.90;96425.00;;;;5109538;28;20479;-76
2021/01/08 09:08:24;;;;;;;10.87;8.17;;;0.00;99.90;-0.80;96430.00;;;;5108761;28;20523;-74
2021/01/08 09:10:58;;;;;;;9.00;6.40;;;0.20;99.90;-0.90;96432.00;;;;5105986;28;20464;-76
2021/01/08 09:13:44;;;;;;;8.37;6.07;;;0.20;99.90;-1.10;96426.00;;;;5100742;28;20467;-75
2021/01/08 09:16:18;;;;;;;7.10;5.43;;;0.30;99.90;-1.20;96425.00;;;;5110047;28;20444;-75
2021/01/08 09:18:51;;;;;;;7.60;6.03;;;0.20;99.90;-1.20;96420.00;;;;5108657;28;20849;-76
2021/01/08 09:21:22;;;;;;;10.37;7.30;;;0.20;99.90;-0.90;96424.00;;;;5109955;28;20451;-76
2021/01/08 09:23:54;;;;;;;8.03;6.23;;;0.20;99.90;-0.70;96422.00;;;;5107455;28;20464;-76
2021/01/08 09:26:25;;;;;;;8.87;6.10;;;0.30;99.90;-0.60;96431.00;;;;5107358;28;20441;-76
2021/01/08 09:28:55;;;;;;;41.83;20.27;;;0.50;99.90;-0.60;96420.00;;;;5106649;28;20449;-76
2021/01/08 09:31:38;;;;;;;29.73;14.80;;;0.50;99.90;-0.70;96415.00;;;;5104998;28;20456;-76
2021/01/08 09:34:07;;;;;;;12.97;7.37;;;0.60;99.90;-0.80;96424.00;;;;5101825;28;20475;-72
2021/01/08 09:36:37;;;;;;;9.43;6.60;;;0.60;99.90;-0.50;96421.00;;;;5107200;27;20463;-76
2021/01/08 09:39:07;;;;;;;11.37;8.23;;;0.60;99.90;-0.40;96425.00;;;;5104924;28;20903;-76
2021/01/08 09:41:37;;;;;;;13.40;9.33;;;0.70;99.90;-0.20;96426.00;;;;5115463;27;20811;-77
2021/01/08 09:44:07;;;;;;;13.03;8.00;;;0.80;99.90;0.00;96421.00;;;;5109088;27;20484;-76
2021/01/08 09:46:53;;;;;;;14.73;8.93;;;1.00;99.90;0.30;96425.00;;;;5104744;28;20455;-76
2021/01/08 09:49:21;;;;;;;11.47;7.90;;;1.10;99.90;0.40;96426.00;;;;5094644;28;20449;-76
2021/01/08 09:52:00;;;;;;;10.23;7.97;;;1.20;99.90;0.50;96431.00;;;;5104336;28;20837;-75
2021/01/08 09:54:43;;;;;;;9.63;7.27;;;1.40;99.90;0.70;96426.00;;;;5109079;28;20443;-76
2021/01/08 09:57:26;;;;;;;13.50;8.50;;;1.50;99.90;0.90;96421.00;;;;5108281;28;20456;-76
2021/01/08 09:59:55;;;;;;;18.83;10.60;;;1.70;99.90;1.00;96421.00;;;;5109649;28;20460;-76
2021/01/08 10:02:41;;;;;;;13.53;9.93;;;1.80;99.90;0.90;96435.00;;;;5105993;28;20484;-75
2021/01/08 10:05:25;;;;;;;13.50;10.73;;;1.90;99.90;1.00;96425.00;;;;5109442;28;20499;-76
2021/01/08 10:07:53;;;;;;;12.40;8.03;;;2.00;99.90;1.00;96424.00;;;;5107868;28;20444;-75
2021/01/08 10:10:41;;;;;;;10.57;7.63;;;2.10;99.90;1.40;96416.00;;;;5107894;28;20444;-75
2021/01/08 10:13:19;;;;;;;13.50;7.83;;;2.20;99.90;1.70;96413.00;;;;5104377;28;20465;-74
2021/01/08 10:15:48;;;;;;;10.77;8.40;;;2.40;99.90;1.90;96425.00;;;;5103602;28;20967;-75
2021/01/08 10:18:22;;;;;;;11.93;8.77;;;2.60;99.90;1.80;96403.00;;;;5108003;28;20198;-74
2021/01/08 10:20:51;;;;;;;10.20;7.33;;;2.70;99.90;2.10;96408.00;;;;5109365;28;20831;-74
2021/01/08 10:23:21;;;;;;;16.17;7.73;;;2.90;99.90;2.40;96402.00;;;;5108488;28;20230;-73
2021/01/08 10:25:49;;;;;;;9.30;7.37;;;3.10;99.90;2.50;96406.00;;;;5108225;28;20264;-75
2021/01/08 10:28:23;;;;;;;13.77;6.77;;;3.30;99.90;3.00;96414.00;;;;5108241;28;20206;-75
2021/01/08 10:30:52;;;;;;;9.87;7.10;;;3.50;99.90;3.20;96416.00;;;;5109105;28;20206;-76
2021/01/08 10:33:22;;;;;;;8.50;6.13;;;3.80;99.90;3.70;96402.00;;;;5106677;28;20228;-75
2021/01/08 10:35:52;;;;;;;10.73;6.90;;;4.20;99.90;4.20;96411.00;;;;5105910;28;20211;-76
2021/01/08 10:38:21;;;;;;;12.40;7.20;;;4.70;99.90;4.90;96411.00;;;;5087908;28;20210;-76
2021/01/08 10:40:48;;;;;;;16.07;10.83;;;5.30;99.90;5.10;96412.00;;;;5089482;28;20222;-75
2021/01/08 10:43:17;;;;;;;10.13;9.03;;;5.80;99.90;5.10;96393.00;;;;5103767;28;20253;-74
2021/01/08 10:45:46;;;;;;;14.27;6.13;;;6.10;99.60;5.80;96404.00;;;;5108113;28;20222;-75
2021/01/08 10:48:13;;;;;;;12.30;10.23;;;6.50;98.10;5.30;96398.00;;;;5107849;28;20672;-73
2021/01/08 10:50:41;;;;;;;11.33;6.70;;;6.70;93.00;5.50;96394.00;;;;5108314;28;20207;-74
2021/01/08 10:53:09;;;;;;;14.57;7.90;;;6.70;91.70;6.00;96382.00;;;;5108566;28;20233;-76
2021/01/08 10:55:36;;;;;;;10.10;8.47;;;6.90;91.90;6.70;96397.00;;;;5108149;28;20574;-74
2021/01/08 10:58:04;;;;;;;8.13;6.43;;;7.40;90.80;5.30;96368.00;;;;5108303;28;20206;-72
2021/01/08 11:00:31;;;;;;;8.37;6.07;;;7.30;82.90;5.80;96375.00;;;;5108202;28;20225;-75
2021/01/08 11:03:00;;;;;;;10.23;5.20;;;7.30;81.90;5.80;96374.00;;;;5108255;28;20242;-73
2021/01/08 11:05:29;;;;;;;6.77;5.53;;;7.30;80.70;5.80;96392.00;;;;5108370;28;20666;-74